sensor_id;sensor_type;location;lat;lon;timestamp;P1;durP1;ratioP1;P2;durP2;ratioP2
8159;SDS011;27404;52.398;9.646;2022-12-18T00:01:18;17.37;;;8.90;;
8159;SDS011;27404;52.398;9.646;2022-12-18T00:03:49;18.33;;;8.97;;
8159;SDS011;27404;52.398;9.646;2022-12-18T00:06:15;18.80;;;8.83;;
8159;SDS011;27404;52.398;9.646;2022-12-18T00:08:41;18.90;;;8.77;;
8159;SDS011;27404;52.398;9.646;2022-12-18T00:11:10;20.00;;;9.37;;
8159;SDS011;27404;52.398;9.646;2022-12-18T00:13:36;19.10;;;9.30;;
8159;SDS011;27404;52.398;9.646;2022-12-18T00:16:03;21.70;;;9.33;;
8159;SDS011;27404;52.398;9.646;2022-12-18T00:18:33;21.17;;;9.63;;
8159;SDS011;27404;52.398;9.646;2022-12-18T00:21:04;18.73;;;9.17;;
8159;SDS011;27404;52.398;9.646;2022-12-18T00:23:32;18.83;;;8.80;;
8159;SDS011;27404;52.398;9.646;2022-12-18T00:26:02;17.20;;;8.30;;
8159;SDS011;27404;52.398;9.646;2022-12-18T00:28:30;19.27;;;8.60;;
8159;SDS011;27404;52.398;9.646;2022-12-18T00:31:00;15.80;;;8.47;;
8159;SDS011;27404;52.398;9.646;2022-12-18T00:33:27;14.77;;;8.07;;
8159;SDS011;27404;52.398;9.646;2022-12-18T00:35:53;16.47;;;8.10;;
8159;SDS011;27404;52.398;9.646;2022-12-18T00:38:18;16.47;;;8.00;;
8159;SDS011;27404;52.398;9.646;2022-12-18T00:40:44;16.83;;;8.20;;
8159;SDS011;27404;52.398;9.646;2022-12-18T00:43:09;19.77;;;9.43;;
8159;SDS011;27404;52.398;9.646;2022-12-18T00:45:35;18.20;;;8.80;;
8159;SDS011;27404;52.398;9.646;2022-12-18T00:48:00;17.00;;;7.93;;
8159;SDS011;27404;52.398;9.646;2022-12-18T00:50:26;17.60;;;8.27;;
8159;SDS011;27404;52.398;9.646;2022-12-18T00:52:51;20.27;;;10.07;;
8159;SDS011;27404;52.398;9.646;2022-12-18T00:55:17;14.43;;;8.33;;
8159;SDS011;27404;52.398;9.646;2022-12-18T00:57:43;17.60;;;9.27;;
8159;SDS011;27404;52.398;9.646;2022-12-18T01:00:10;19.87;;;8.90;;
8159;SDS011;27404;52.398;9.646;2022-12-18T01:02:38;16.83;;;8.20;;
8159;SDS011;27404;52.398;9.646;2022-12-18T01:05:04;22.83;;;11.33;;
8159;SDS011;27404;52.398;9.646;2022-12-18T01:07:30;20.60;;;9.50;;
8159;SDS011;27404;52.398;9.646;2022-12-18T01:09:55;17.37;;;9.10;;
8159;SDS011;27404;52.398;9.646;2022-12-18T01:12:20;15.17;;;7.63;;
8159;SDS011;27404;52.398;9.646;2022-12-18T01:14:46;18.67;;;8.20;;
8159;SDS011;27404;52.398;9.646;2022-12-18T01:17:11;14.73;;;8.27;;
8159;SDS011;27404;52.398;9.646;2022-12-18T01:19:37;16.27;;;8.73;;
8159;SDS011;27404;52.398;9.646;2022-12-18T01:22:02;18.70;;;8.17;;
8159;SDS011;27404;52.398;9.646;2022-12-18T01:24:28;20.70;;;8.67;;
8159;SDS011;27404;52.398;9.646;2022-12-18T01:26:53;17.97;;;8.93;;
8159;SDS011;27404;52.398;9.646;2022-12-18T01:29:19;16.57;;;8.70;;
8159;SDS011;27404;52.398;9.646;2022-12-18T01:31:44;18.70;;;8.93;;
8159;SDS011;27404;52.398;9.646;2022-12-18T01:34:10;17.33;;;8.20;;
8159;SDS011;27404;52.398;9.646;2022-12-18T01:36:36;18.93;;;8.50;;
8159;SDS011;27404;52.398;9.646;2022-12-18T01:39:12;16.23;;;8.63;;
8159;SDS011;27404;52.398;9.646;2022-12-18T01:41:39;17.33;;;9.07;;
8159;SDS011;27404;52.398;9.646;2022-12-18T01:50:17;16.53;;;9.10;;
8159;SDS011;27404;52.398;9.646;2022-12-18T01:52:46;17.30;;;9.07;;
8159;SDS011;27404;52.398;9.646;2022-12-18T01:55:15;16.90;;;8.60;;
8159;SDS011;27404;52.398;9.646;2022-12-18T01:57:44;15.70;;;8.87;;
8159;SDS011;27404;52.398;9.646;2022-12-18T02:00:12;14.80;;;8.53;;
8159;SDS011;27404;52.398;9.646;2022-12-18T02:02:41;17.23;;;8.53;;
8159;SDS011;27404;52.398;9.646;2022-12-18T02:05:09;18.30;;;8.80;;
8159;SDS011;27404;52.398;9.646;2022-12-18T02:10:45;17.00;;;7.83;;
8159;SDS011;27404;52.398;9.646;2022-12-18T02:13:20;23.30;;;8.27;;
8159;SDS011;27404;52.398;9.646;2022-12-18T02:16:14;18.03;;;7.80;;
8159;SDS011;27404;52.398;9.646;2022-12-18T02:19:16;15.67;;;7.87;;
8159;SDS011;27404;52.398;9.646;2022-12-18T02:24:56;17.47;;;8.13;;
8159;SDS011;27404;52.398;9.646;2022-12-18T02:27:29;16.17;;;7.80;;
8159;SDS011;27404;52.398;9.646;2022-12-18T02:29:59;20.57;;;8.13;;
8159;SDS011;27404;52.398;9.646;2022-12-18T02:32:27;14.87;;;7.80;;
8159;SDS011;27404;52.398;9.646;2022-12-18T02:34:56;14.20;;;7.90;;
8159;SDS011;27404;52.398;9.646;2022-12-18T02:37:24;19.07;;;8.60;;
8159;SDS011;27404;52.398;9.646;2022-12-18T02:39:53;15.93;;;8.37;;
8159;SDS011;27404;52.398;9.646;2022-12-18T02:42:21;15.43;;;8.10;;
8159;SDS011;27404;52.398;9.646;2022-12-18T02:44:48;13.47;;;7.63;;
8159;SDS011;27404;52.398;9.646;2022-12-18T02:47:17;16.63;;;8.07;;
8159;SDS011;27404;52.398;9.646;2022-12-18T02:52:31;16.10;;;7.67;;
8159;SDS011;27404;52.398;9.646;2022-12-18T02:57:53;15.63;;;7.47;;
8159;SDS011;27404;52.398;9.646;2022-12-18T03:00:23;16.93;;;7.87;;
8159;SDS011;27404;52.398;9.646;2022-12-18T03:03:05;15.07;;;7.77;;
8159;SDS011;27404;52.398;9.646;2022-12-18T03:05:52;19.10;;;8.50;;
8159;SDS011;27404;52.398;9.646;2022-12-18T03:08:23;17.13;;;7.83;;
8159;SDS011;27404;52.398;9.646;2022-12-18T03:10:53;16.00;;;8.43;;
8159;SDS011;27404;52.398;9.646;2022-12-18T03:16:32;16.97;;;7.73;;
8159;SDS011;27404;52.398;9.646;2022-12-18T03:19:22;15.17;;;7.30;;
8159;SDS011;27404;52.398;9.646;2022-12-18T03:21:49;16.30;;;8.20;;
8159;SDS011;27404;52.398;9.646;2022-12-18T03:24:19;13.87;;;7.53;;
8159;SDS011;27404;52.398;9.646;2022-12-18T03:26:47;18.77;;;7.90;;
8159;SDS011;27404;52.398;9.646;2022-12-18T03:29:21;17.50;;;7.90;;
8159;SDS011;27404;52.398;9.646;2022-12-18T03:31:55;16.00;;;8.20;;
8159;SDS011;27404;52.398;9.646;2022-12-18T03:34:27;14.43;;;7.27;;
8159;SDS011;27404;52.398;9.646;2022-12-18T03:36:56;15.23;;;7.27;;
8159;SDS011;27404;52.398;9.646;2022-12-18T03:39:22;14.57;;;8.27;;
8159;SDS011;27404;52.398;9.646;2022-12-18T03:44:28;19.10;;;8.80;;
8159;SDS011;27404;52.398;9.646;2022-12-18T03:50:11;18.60;;;8.20;;
8159;SDS011;27404;52.398;9.646;2022-12-18T03:52:45;15.10;;;7.33;;
8159;SDS011;27404;52.398;9.646;2022-12-18T03:55:11;14.17;;;7.27;;
8159;SDS011;27404;52.398;9.646;2022-12-18T03:57:37;16.57;;;8.03;;
8159;SDS011;27404;52.398;9.646;2022-12-18T04:00:08;15.97;;;7.77;;
8159;SDS011;27404;52.398;9.646;2022-12-18T04:02:37;17.23;;;8.20;;
8159;SDS011;27404;52.398;9.646;2022-12-18T04:05:06;14.33;;;7.80;;
8159;SDS011;27404;52.398;9.646;2022-12-18T04:07:33;15.80;;;7.83;;
8159;SDS011;27404;52.398;9.646;2022-12-18T04:10:00;17.50;;;8.83;;
8159;SDS011;27404;52.398;9.646;2022-12-18T04:12:28;15.00;;;7.90;;
8159;SDS011;27404;52.398;9.646;2022-12-18T04:14:55;14.53;;;7.93;;
8159;SDS011;27404;52.398;9.646;2022-12-18T04:17:20;15.37;;;8.13;;
8159;SDS011;27404;52.398;9.646;2022-12-18T04:19:46;15.33;;;8.27;;
8159;SDS011;27404;52.398;9.646;2022-12-18T04:22:12;14.83;;;8.30;;
8159;SDS011;27404;52.398;9.646;2022-12-18T04:24:37;18.03;;;8.73;;
8159;SDS011;27404;52.398;9.646;2022-12-18T04:27:03;16.07;;;8.60;;
8159;SDS011;27404;52.398;9.646;2022-12-18T04:29:29;15.67;;;8.60;;
8159;SDS011;27404;52.398;9.646;2022-12-18T04:31:55;17.60;;;8.77;;
8159;SDS011;27404;52.398;9.646;2022-12-18T04:34:20;16.67;;;8.93;;
8159;SDS011;27404;52.398;9.646;2022-12-18T04:36:46;16.30;;;8.40;;
8159;SDS011;27404;52.398;9.646;2022-12-18T04:39:11;18.17;;;8.30;;
8159;SDS011;27404;52.398;9.646;2022-12-18T04:41:37;16.80;;;7.70;;
8159;SDS011;27404;52.398;9.646;2022-12-18T04:44:03;16.40;;;9.23;;
8159;SDS011;27404;52.398;9.646;2022-12-18T04:46:29;17.63;;;8.27;;
8159;SDS011;27404;52.398;9.646;2022-12-18T04:48:55;17.63;;;8.10;;
8159;SDS011;27404;52.398;9.646;2022-12-18T04:51:20;16.30;;;8.53;;
8159;SDS011;27404;52.398;9.646;2022-12-18T04:53:46;14.77;;;8.33;;
8159;SDS011;27404;52.398;9.646;2022-12-18T04:56:12;17.60;;;7.97;;
8159;SDS011;27404;52.398;9.646;2022-12-18T04:58:39;14.50;;;8.33;;
8159;SDS011;27404;52.398;9.646;2022-12-18T05:01:07;17.43;;;8.13;;
8159;SDS011;27404;52.398;9.646;2022-12-18T05:03:33;16.40;;;8.80;;
8159;SDS011;27404;52.398;9.646;2022-12-18T05:05:59;19.77;;;9.17;;
8159;SDS011;27404;52.398;9.646;2022-12-18T05:08:25;16.07;;;8.20;;
8159;SDS011;27404;52.398;9.646;2022-12-18T05:11:07;19.37;;;8.60;;
8159;SDS011;27404;52.398;9.646;2022-12-18T05:13:34;15.43;;;8.73;;
8159;SDS011;27404;52.398;9.646;2022-12-18T05:16:00;21.07;;;8.23;;
8159;SDS011;27404;52.398;9.646;2022-12-18T05:18:25;15.30;;;8.17;;
8159;SDS011;27404;52.398;9.646;2022-12-18T05:20:51;19.40;;;8.53;;
8159;SDS011;27404;52.398;9.646;2022-12-18T05:23:18;20.07;;;9.43;;
8159;SDS011;27404;52.398;9.646;2022-12-18T05:25:50;17.33;;;8.60;;
8159;SDS011;27404;52.398;9.646;2022-12-18T05:28:20;15.17;;;7.90;;
8159;SDS011;27404;52.398;9.646;2022-12-18T05:30:49;15.77;;;8.23;;
8159;SDS011;27404;52.398;9.646;2022-12-18T05:33:21;14.43;;;7.50;;
8159;SDS011;27404;52.398;9.646;2022-12-18T05:35:51;16.03;;;7.50;;
8159;SDS011;27404;52.398;9.646;2022-12-18T05:38:18;14.90;;;7.43;;
8159;SDS011;27404;52.398;9.646;2022-12-18T05:40:45;18.00;;;8.07;;
8159;SDS011;27404;52.398;9.646;2022-12-18T05:43:11;13.80;;;7.63;;
8159;SDS011;27404;52.398;9.646;2022-12-18T05:45:39;15.03;;;7.50;;
8159;SDS011;27404;52.398;9.646;2022-12-18T05:48:05;15.53;;;8.43;;
8159;SDS011;27404;52.398;9.646;2022-12-18T05:50:33;16.90;;;8.30;;
8159;SDS011;27404;52.398;9.646;2022-12-18T05:53:01;15.53;;;7.60;;
8159;SDS011;27404;52.398;9.646;2022-12-18T05:55:27;16.37;;;7.47;;
8159;SDS011;27404;52.398;9.646;2022-12-18T05:57:52;16.53;;;8.13;;
8159;SDS011;27404;52.398;9.646;2022-12-18T06:00:17;16.83;;;7.53;;
8159;SDS011;27404;52.398;9.646;2022-12-18T06:02:46;15.67;;;7.43;;
8159;SDS011;27404;52.398;9.646;2022-12-18T06:05:12;18.43;;;7.93;;
8159;SDS011;27404;52.398;9.646;2022-12-18T06:07:37;14.00;;;7.13;;
8159;SDS011;27404;52.398;9.646;2022-12-18T06:10:03;14.97;;;7.60;;
8159;SDS011;27404;52.398;9.646;2022-12-18T06:12:28;16.60;;;8.00;;
8159;SDS011;27404;52.398;9.646;2022-12-18T06:14:54;13.30;;;7.07;;
8159;SDS011;27404;52.398;9.646;2022-12-18T06:17:19;15.73;;;6.77;;
8159;SDS011;27404;52.398;9.646;2022-12-18T06:19:45;15.20;;;7.33;;
8159;SDS011;27404;52.398;9.646;2022-12-18T06:22:10;14.80;;;7.67;;
8159;SDS011;27404;52.398;9.646;2022-12-18T06:24:35;13.53;;;7.20;;
8159;SDS011;27404;52.398;9.646;2022-12-18T06:27:01;16.83;;;7.47;;
8159;SDS011;27404;52.398;9.646;2022-12-18T06:29:27;13.67;;;7.20;;
8159;SDS011;27404;52.398;9.646;2022-12-18T06:31:52;12.70;;;7.20;;
8159;SDS011;27404;52.398;9.646;2022-12-18T06:34:18;14.93;;;6.40;;
8159;SDS011;27404;52.398;9.646;2022-12-18T06:36:43;13.43;;;7.17;;
8159;SDS011;27404;52.398;9.646;2022-12-18T06:39:08;14.10;;;7.10;;
8159;SDS011;27404;52.398;9.646;2022-12-18T06:41:34;13.13;;;6.40;;
8159;SDS011;27404;52.398;9.646;2022-12-18T06:43:59;13.03;;;7.00;;
8159;SDS011;27404;52.398;9.646;2022-12-18T06:46:25;14.57;;;6.93;;
8159;SDS011;27404;52.398;9.646;2022-12-18T06:48:50;15.13;;;6.10;;
8159;SDS011;27404;52.398;9.646;2022-12-18T06:51:17;16.10;;;7.10;;
8159;SDS011;27404;52.398;9.646;2022-12-18T06:53:43;12.20;;;7.00;;
8159;SDS011;27404;52.398;9.646;2022-12-18T06:56:09;16.23;;;7.73;;
8159;SDS011;27404;52.398;9.646;2022-12-18T06:58:34;16.63;;;7.90;;
8159;SDS011;27404;52.398;9.646;2022-12-18T07:01:00;14.47;;;7.00;;
8159;SDS011;27404;52.398;9.646;2022-12-18T07:03:26;13.30;;;6.60;;
8159;SDS011;27404;52.398;9.646;2022-12-18T07:05:52;14.70;;;7.07;;
8159;SDS011;27404;52.398;9.646;2022-12-18T07:08:18;12.97;;;7.17;;
8159;SDS011;27404;52.398;9.646;2022-12-18T07:10:43;13.80;;;6.53;;
8159;SDS011;27404;52.398;9.646;2022-12-18T07:13:08;16.03;;;7.67;;
8159;SDS011;27404;52.398;9.646;2022-12-18T07:15:34;15.23;;;6.87;;
8159;SDS011;27404;52.398;9.646;2022-12-18T07:17:59;14.47;;;7.00;;
8159;SDS011;27404;52.398;9.646;2022-12-18T07:20:25;14.73;;;7.50;;
8159;SDS011;27404;52.398;9.646;2022-12-18T07:22:50;14.93;;;7.43;;
8159;SDS011;27404;52.398;9.646;2022-12-18T07:25:16;15.33;;;7.33;;
8159;SDS011;27404;52.398;9.646;2022-12-18T07:27:41;14.43;;;7.47;;
8159;SDS011;27404;52.398;9.646;2022-12-18T07:30:07;16.03;;;6.37;;
8159;SDS011;27404;52.398;9.646;2022-12-18T07:32:33;17.13;;;6.27;;
8159;SDS011;27404;52.398;9.646;2022-12-18T07:34:59;14.00;;;6.67;;
8159;SDS011;27404;52.398;9.646;2022-12-18T07:37:25;15.40;;;7.37;;
8159;SDS011;27404;52.398;9.646;2022-12-18T07:39:50;15.30;;;6.77;;
8159;SDS011;27404;52.398;9.646;2022-12-18T07:42:15;17.33;;;7.00;;
8159;SDS011;27404;52.398;9.646;2022-12-18T07:44:56;15.97;;;6.67;;
8159;SDS011;27404;52.398;9.646;2022-12-18T07:47:23;14.13;;;7.00;;
8159;SDS011;27404;52.398;9.646;2022-12-18T07:49:48;13.93;;;6.57;;
8159;SDS011;27404;52.398;9.646;2022-12-18T07:52:14;12.63;;;7.03;;
8159;SDS011;27404;52.398;9.646;2022-12-18T07:54:40;11.57;;;6.33;;
8159;SDS011;27404;52.398;9.646;2022-12-18T07:57:05;19.07;;;7.27;;
8159;SDS011;27404;52.398;9.646;2022-12-18T07:59:32;16.10;;;7.03;;
8159;SDS011;27404;52.398;9.646;2022-12-18T08:01:57;13.60;;;7.63;;
8159;SDS011;27404;52.398;9.646;2022-12-18T08:04:23;14.00;;;6.23;;
8159;SDS011;27404;52.398;9.646;2022-12-18T08:06:49;13.47;;;6.23;;
8159;SDS011;27404;52.398;9.646;2022-12-18T08:09:14;15.73;;;6.90;;
8159;SDS011;27404;52.398;9.646;2022-12-18T08:11:40;15.83;;;6.60;;
8159;SDS011;27404;52.398;9.646;2022-12-18T08:14:05;14.30;;;6.37;;
8159;SDS011;27404;52.398;9.646;2022-12-18T08:16:31;17.63;;;7.20;;
8159;SDS011;27404;52.398;9.646;2022-12-18T08:18:56;12.80;;;6.80;;
8159;SDS011;27404;52.398;9.646;2022-12-18T08:21:23;12.67;;;7.03;;
8159;SDS011;27404;52.398;9.646;2022-12-18T08:23:51;14.43;;;7.07;;
8159;SDS011;27404;52.398;9.646;2022-12-18T08:26:18;11.77;;;6.93;;
8159;SDS011;27404;52.398;9.646;2022-12-18T08:28:43;12.87;;;7.00;;
8159;SDS011;27404;52.398;9.646;2022-12-18T08:31:09;12.57;;;6.60;;
8159;SDS011;27404;52.398;9.646;2022-12-18T08:33:35;14.17;;;6.93;;
8159;SDS011;27404;52.398;9.646;2022-12-18T08:36:03;14.67;;;7.00;;
8159;SDS011;27404;52.398;9.646;2022-12-18T08:38:29;14.57;;;7.03;;
8159;SDS011;27404;52.398;9.646;2022-12-18T08:41:00;15.57;;;6.93;;
8159;SDS011;27404;52.398;9.646;2022-12-18T08:43:30;11.77;;;6.53;;
8159;SDS011;27404;52.398;9.646;2022-12-18T08:46:14;11.23;;;5.93;;
8159;SDS011;27404;52.398;9.646;2022-12-18T08:48:40;16.03;;;7.37;;
8159;SDS011;27404;52.398;9.646;2022-12-18T08:51:05;12.27;;;6.90;;
8159;SDS011;27404;52.398;9.646;2022-12-18T08:53:31;11.40;;;6.83;;
8159;SDS011;27404;52.398;9.646;2022-12-18T08:55:56;14.00;;;7.17;;
8159;SDS011;27404;52.398;9.646;2022-12-18T08:58:22;13.67;;;6.57;;
8159;SDS011;27404;52.398;9.646;2022-12-18T09:00:48;16.90;;;7.93;;
8159;SDS011;27404;52.398;9.646;2022-12-18T09:03:17;12.73;;;7.20;;
8159;SDS011;27404;52.398;9.646;2022-12-18T09:05:45;13.43;;;6.63;;
8159;SDS011;27404;52.398;9.646;2022-12-18T09:08:11;14.10;;;6.73;;
8159;SDS011;27404;52.398;9.646;2022-12-18T09:10:47;10.80;;;6.97;;
8159;SDS011;27404;52.398;9.646;2022-12-18T09:13:14;14.27;;;6.87;;
8159;SDS011;27404;52.398;9.646;2022-12-18T09:15:48;14.03;;;6.77;;
8159;SDS011;27404;52.398;9.646;2022-12-18T09:18:15;13.20;;;7.10;;
8159;SDS011;27404;52.398;9.646;2022-12-18T09:20:42;13.67;;;6.80;;
8159;SDS011;27404;52.398;9.646;2022-12-18T09:23:07;12.90;;;7.30;;
8159;SDS011;27404;52.398;9.646;2022-12-18T09:25:34;14.87;;;7.17;;
8159;SDS011;27404;52.398;9.646;2022-12-18T09:28:05;11.97;;;6.23;;
8159;SDS011;27404;52.398;9.646;2022-12-18T09:30:32;12.40;;;6.60;;
8159;SDS011;27404;52.398;9.646;2022-12-18T09:32:59;11.33;;;6.17;;
8159;SDS011;27404;52.398;9.646;2022-12-18T09:35:25;11.73;;;6.80;;
8159;SDS011;27404;52.398;9.646;2022-12-18T09:37:51;11.53;;;6.80;;
8159;SDS011;27404;52.398;9.646;2022-12-18T09:40:18;16.27;;;7.53;;
8159;SDS011;27404;52.398;9.646;2022-12-18T09:42:46;12.37;;;6.70;;
8159;SDS011;27404;52.398;9.646;2022-12-18T09:45:17;11.37;;;6.00;;
8159;SDS011;27404;52.398;9.646;2022-12-18T09:47:43;13.50;;;6.97;;
8159;SDS011;27404;52.398;9.646;2022-12-18T09:50:31;11.30;;;6.07;;
8159;SDS011;27404;52.398;9.646;2022-12-18T09:53:03;11.60;;;6.77;;
8159;SDS011;27404;52.398;9.646;2022-12-18T09:55:42;13.93;;;7.57;;
8159;SDS011;27404;52.398;9.646;2022-12-18T10:00:35;12.33;;;6.87;;
8159;SDS011;27404;52.398;9.646;2022-12-18T10:03:03;11.60;;;6.60;;
8159;SDS011;27404;52.398;9.646;2022-12-18T10:05:37;11.13;;;6.60;;
8159;SDS011;27404;52.398;9.646;2022-12-18T10:10:53;11.87;;;6.00;;
8159;SDS011;27404;52.398;9.646;2022-12-18T10:13:41;10.97;;;5.00;;
8159;SDS011;27404;52.398;9.646;2022-12-18T10:19:17;8.87;;;5.03;;
8159;SDS011;27404;52.398;9.646;2022-12-18T10:22:01;9.47;;;5.33;;
8159;SDS011;27404;52.398;9.646;2022-12-18T10:27:44;12.03;;;5.30;;
8159;SDS011;27404;52.398;9.646;2022-12-18T10:30:17;9.83;;;5.43;;
8159;SDS011;27404;52.398;9.646;2022-12-18T10:32:44;9.07;;;4.60;;
8159;SDS011;27404;52.398;9.646;2022-12-18T10:35:17;8.90;;;5.30;;
8159;SDS011;27404;52.398;9.646;2022-12-18T10:48:34;10.03;;;4.13;;
8159;SDS011;27404;52.398;9.646;2022-12-18T10:51:04;6.60;;;3.57;;
8159;SDS011;27404;52.398;9.646;2022-12-18T10:53:32;8.50;;;4.03;;
8159;SDS011;27404;52.398;9.646;2022-12-18T10:55:59;7.60;;;3.80;;
8159;SDS011;27404;52.398;9.646;2022-12-18T10:58:27;8.90;;;4.37;;
8159;SDS011;27404;52.398;9.646;2022-12-18T11:03:38;9.90;;;4.33;;
8159;SDS011;27404;52.398;9.646;2022-12-18T11:06:10;7.37;;;3.97;;
8159;SDS011;27404;52.398;9.646;2022-12-18T11:08:37;8.37;;;4.43;;
8159;SDS011;27404;52.398;9.646;2022-12-18T11:11:04;7.53;;;4.30;;
8159;SDS011;27404;52.398;9.646;2022-12-18T11:13:39;7.70;;;4.60;;
8159;SDS011;27404;52.398;9.646;2022-12-18T11:16:05;6.83;;;3.90;;
8159;SDS011;27404;52.398;9.646;2022-12-18T11:18:34;11.17;;;5.00;;
8159;SDS011;27404;52.398;9.646;2022-12-18T11:21:11;8.47;;;4.60;;
8159;SDS011;27404;52.398;9.646;2022-12-18T11:23:43;8.00;;;4.67;;
8159;SDS011;27404;52.398;9.646;2022-12-18T11:26:18;9.73;;;5.10;;
8159;SDS011;27404;52.398;9.646;2022-12-18T11:28:52;11.27;;;5.07;;
8159;SDS011;27404;52.398;9.646;2022-12-18T11:31:32;9.20;;;4.73;;
8159;SDS011;27404;52.398;9.646;2022-12-18T11:34:05;11.50;;;5.20;;
8159;SDS011;27404;52.398;9.646;2022-12-18T11:36:39;7.87;;;4.87;;
8159;SDS011;27404;52.398;9.646;2022-12-18T11:41:56;7.47;;;4.40;;
8159;SDS011;27404;52.398;9.646;2022-12-18T11:44:45;8.53;;;4.77;;
8159;SDS011;27404;52.398;9.646;2022-12-18T11:50:09;8.23;;;4.33;;
8159;SDS011;27404;52.398;9.646;2022-12-18T11:52:39;8.40;;;4.47;;
8159;SDS011;27404;52.398;9.646;2022-12-18T11:55:49;9.27;;;4.53;;
8159;SDS011;27404;52.398;9.646;2022-12-18T11:58:17;8.20;;;4.90;;
8159;SDS011;27404;52.398;9.646;2022-12-18T12:00:52;9.03;;;4.83;;
8159;SDS011;27404;52.398;9.646;2022-12-18T12:09:02;8.83;;;4.37;;
8159;SDS011;27404;52.398;9.646;2022-12-18T12:11:46;6.47;;;3.80;;
8159;SDS011;27404;52.398;9.646;2022-12-18T12:14:42;7.77;;;3.70;;
8159;SDS011;27404;52.398;9.646;2022-12-18T12:17:30;5.83;;;3.73;;
8159;SDS011;27404;52.398;9.646;2022-12-18T12:22:56;9.77;;;4.23;;
8159;SDS011;27404;52.398;9.646;2022-12-18T12:28:43;8.93;;;4.27;;
8159;SDS011;27404;52.398;9.646;2022-12-18T12:34:17;9.00;;;4.10;;
8159;SDS011;27404;52.398;9.646;2022-12-18T12:39:14;8.03;;;4.17;;
8159;SDS011;27404;52.398;9.646;2022-12-18T12:41:45;5.97;;;3.73;;
8159;SDS011;27404;52.398;9.646;2022-12-18T12:44:32;6.53;;;3.23;;
8159;SDS011;27404;52.398;9.646;2022-12-18T12:47:07;5.37;;;2.93;;
8159;SDS011;27404;52.398;9.646;2022-12-18T12:49:41;5.63;;;2.93;;
8159;SDS011;27404;52.398;9.646;2022-12-18T12:52:14;6.47;;;3.03;;
8159;SDS011;27404;52.398;9.646;2022-12-18T12:54:48;4.87;;;2.90;;
8159;SDS011;27404;52.398;9.646;2022-12-18T12:57:27;6.80;;;2.93;;
8159;SDS011;27404;52.398;9.646;2022-12-18T13:00:05;6.20;;;3.70;;
8159;SDS011;27404;52.398;9.646;2022-12-18T13:02:49;4.07;;;3.17;;
8159;SDS011;27404;52.398;9.646;2022-12-18T13:05:24;8.47;;;3.13;;
8159;SDS011;27404;52.398;9.646;2022-12-18T13:08:03;5.80;;;3.00;;
8159;SDS011;27404;52.398;9.646;2022-12-18T13:10:33;4.93;;;3.00;;
8159;SDS011;27404;52.398;9.646;2022-12-18T13:15:36;6.90;;;3.13;;
8159;SDS011;27404;52.398;9.646;2022-12-18T13:25:49;6.60;;;3.80;;
8159;SDS011;27404;52.398;9.646;2022-12-18T13:28:16;8.27;;;3.93;;
8159;SDS011;27404;52.398;9.646;2022-12-18T13:30:50;6.27;;;3.63;;
8159;SDS011;27404;52.398;9.646;2022-12-18T13:33:36;9.33;;;3.90;;
8159;SDS011;27404;52.398;9.646;2022-12-18T13:38:42;6.37;;;3.87;;
8159;SDS011;27404;52.398;9.646;2022-12-18T13:43:44;9.27;;;4.47;;
8159;SDS011;27404;52.398;9.646;2022-12-18T13:48:54;10.10;;;4.40;;
8159;SDS011;27404;52.398;9.646;2022-12-18T13:51:30;8.93;;;4.70;;
8159;SDS011;27404;52.398;9.646;2022-12-18T13:53:59;9.23;;;4.97;;
8159;SDS011;27404;52.398;9.646;2022-12-18T13:56:31;11.73;;;5.77;;
8159;SDS011;27404;52.398;9.646;2022-12-18T14:01:44;11.40;;;6.20;;
8159;SDS011;27404;52.398;9.646;2022-12-18T14:04:16;11.50;;;5.83;;
8159;SDS011;27404;52.398;9.646;2022-12-18T14:06:45;13.40;;;6.70;;
8159;SDS011;27404;52.398;9.646;2022-12-18T14:09:19;15.53;;;7.20;;
8159;SDS011;27404;52.398;9.646;2022-12-18T14:11:49;11.43;;;6.47;;
8159;SDS011;27404;52.398;9.646;2022-12-18T14:14:16;20.00;;;8.23;;
8159;SDS011;27404;52.398;9.646;2022-12-18T14:16:43;17.53;;;7.87;;
8159;SDS011;27404;52.398;9.646;2022-12-18T14:19:15;18.10;;;7.40;;
8159;SDS011;27404;52.398;9.646;2022-12-18T14:21:47;15.97;;;7.93;;
8159;SDS011;27404;52.398;9.646;2022-12-18T14:24:18;23.23;;;7.73;;
8159;SDS011;27404;52.398;9.646;2022-12-18T14:26:46;18.73;;;8.90;;
8159;SDS011;27404;52.398;9.646;2022-12-18T14:31:46;14.90;;;7.83;;
8159;SDS011;27404;52.398;9.646;2022-12-18T14:34:28;18.63;;;8.73;;
8159;SDS011;27404;52.398;9.646;2022-12-18T14:36:54;16.33;;;8.60;;
8159;SDS011;27404;52.398;9.646;2022-12-18T14:39:21;19.47;;;9.03;;
8159;SDS011;27404;52.398;9.646;2022-12-18T14:41:48;17.90;;;8.10;;
8159;SDS011;27404;52.398;9.646;2022-12-18T14:44:14;21.33;;;9.47;;
8159;SDS011;27404;52.398;9.646;2022-12-18T14:46:41;18.90;;;9.13;;
8159;SDS011;27404;52.398;9.646;2022-12-18T14:49:19;16.03;;;8.57;;
8159;SDS011;27404;52.398;9.646;2022-12-18T14:54:49;24.60;;;8.73;;
8159;SDS011;27404;52.398;9.646;2022-12-18T14:57:24;22.77;;;10.17;;
8159;SDS011;27404;52.398;9.646;2022-12-18T14:59:55;17.20;;;9.13;;
8159;SDS011;27404;52.398;9.646;2022-12-18T15:02:30;18.97;;;8.97;;
8159;SDS011;27404;52.398;9.646;2022-12-18T15:05:14;22.87;;;10.07;;
8159;SDS011;27404;52.398;9.646;2022-12-18T15:07:50;19.93;;;9.40;;
8159;SDS011;27404;52.398;9.646;2022-12-18T15:10:19;17.17;;;9.03;;
8159;SDS011;27404;52.398;9.646;2022-12-18T15:12:48;18.93;;;9.73;;
8159;SDS011;27404;52.398;9.646;2022-12-18T15:18:04;20.40;;;9.33;;
8159;SDS011;27404;52.398;9.646;2022-12-18T15:25:46;22.70;;;10.43;;
8159;SDS011;27404;52.398;9.646;2022-12-18T15:28:21;21.87;;;10.50;;
8159;SDS011;27404;52.398;9.646;2022-12-18T15:33:59;22.40;;;10.57;;
8159;SDS011;27404;52.398;9.646;2022-12-18T15:36:45;20.83;;;9.53;;
8159;SDS011;27404;52.398;9.646;2022-12-18T15:39:11;18.43;;;9.63;;
8159;SDS011;27404;52.398;9.646;2022-12-18T15:41:38;19.47;;;9.70;;
8159;SDS011;27404;52.398;9.646;2022-12-18T15:44:16;18.37;;;9.47;;
8159;SDS011;27404;52.398;9.646;2022-12-18T15:46:47;23.63;;;9.80;;
8159;SDS011;27404;52.398;9.646;2022-12-18T15:49:13;22.17;;;10.67;;
8159;SDS011;27404;52.398;9.646;2022-12-18T15:51:38;18.43;;;10.07;;
8159;SDS011;27404;52.398;9.646;2022-12-18T15:54:05;23.60;;;10.83;;
8159;SDS011;27404;52.398;9.646;2022-12-18T15:56:34;19.30;;;10.33;;
8159;SDS011;27404;52.398;9.646;2022-12-18T15:59:23;22.03;;;10.33;;
8159;SDS011;27404;52.398;9.646;2022-12-18T16:01:49;23.50;;;11.10;;
8159;SDS011;27404;52.398;9.646;2022-12-18T16:04:18;24.03;;;11.10;;
8159;SDS011;27404;52.398;9.646;2022-12-18T16:06:45;23.10;;;11.37;;
8159;SDS011;27404;52.398;9.646;2022-12-18T16:09:11;21.70;;;10.73;;
8159;SDS011;27404;52.398;9.646;2022-12-18T16:11:37;19.53;;;10.93;;
8159;SDS011;27404;52.398;9.646;2022-12-18T16:16:46;17.23;;;9.77;;
8159;SDS011;27404;52.398;9.646;2022-12-18T16:19:14;20.20;;;10.60;;
8159;SDS011;27404;52.398;9.646;2022-12-18T16:21:41;20.00;;;11.07;;
8159;SDS011;27404;52.398;9.646;2022-12-18T16:24:20;15.90;;;9.33;;
8159;SDS011;27404;52.398;9.646;2022-12-18T16:26:47;19.97;;;9.73;;
8159;SDS011;27404;52.398;9.646;2022-12-18T16:29:13;18.60;;;9.43;;
8159;SDS011;27404;52.398;9.646;2022-12-18T16:31:39;14.67;;;9.23;;
8159;SDS011;27404;52.398;9.646;2022-12-18T16:34:21;20.10;;;9.33;;
8159;SDS011;27404;52.398;9.646;2022-12-18T16:36:49;21.23;;;9.67;;
8159;SDS011;27404;52.398;9.646;2022-12-18T16:39:15;20.93;;;9.50;;
8159;SDS011;27404;52.398;9.646;2022-12-18T16:41:41;18.27;;;9.67;;
8159;SDS011;27404;52.398;9.646;2022-12-18T16:44:06;17.30;;;9.17;;
8159;SDS011;27404;52.398;9.646;2022-12-18T16:46:32;17.77;;;9.33;;
8159;SDS011;27404;52.398;9.646;2022-12-18T16:48:58;20.30;;;9.63;;
8159;SDS011;27404;52.398;9.646;2022-12-18T16:51:24;20.60;;;9.77;;
8159;SDS011;27404;52.398;9.646;2022-12-18T16:53:51;19.03;;;10.13;;
8159;SDS011;27404;52.398;9.646;2022-12-18T16:56:17;18.07;;;9.97;;